To NAV CANADA Home Page Login to a new session Search on AWWS site Feedback and Comments Disclaimer Vers la page française équivalente Tips FAQ What's new on the site To the Forecasts and Observations / NOTAM section To "File a Flight Plan" website Publications and other links Update of the User's profile FIC Telephone Numbers My Weather Data Folder Route Weather Data Regional Weather Data Local Weather Data To the Forecasts and Observations / NOTAM section
Request Generated 03/28/2015 at 05:11:38 UTC . Weather information available at that time is displayed.

METAR/TAF

CALGARY/SPRINGBANK/AB    (show WxCam)

METAR CYBW 280500Z AUTO 30005KT 9SM CLR 08/M05 A2971 RMK SLP075
DENSITY ALT 4200FT=
METAR CYBW 280400Z AUTO 20008KT 9SM CLR 08/M06 A2973 RMK SLP083
DENSITY ALT 4200FT=
METAR CYBW 280300Z AUTO 24006KT 9SM CLR 07/M06 A2973 RMK SLP085
DENSITY ALT 4100FT=

*** REMARK        : Forecast period has ended; this was the last TAF issued
*** REMARQUE : La période de prévision est échue; ceci était le dernier TAF qui a été émis
TAF CYBW 272338Z 2800/2804 25015G25KT P6SM BKN180
RMK FCST BASED ON AUTO OBS. NXT FCST WILL BE ISSUED AT 281145Z=
Your time UTC time
Weather data provided by Environment Canada and NAV CANADA